Time;durP1;ratioP1;P1;durP2;ratioP2;P2;SDS_P1;SDS_P2;PMS_P1;PMS_P2;Temp;Humidity;BMP_temperature;BMP_pressure;BME280_temperature;BME280_humidity;BME280_pressure;Samples;Min_cycle;Max_cycle;Signal;HPM_P1;HPM_P2
2022/02/12 00:01:26;;;;;;;9.65;7.60;;;0.10;99.90;;;;;;5090686;28;20199;-87
2022/02/12 00:03:53;;;;;;;11.68;8.77;;;;;;;;;;5105629;28;20222;-87
2022/02/12 00:06:20;;;;;;;14.60;8.43;;;;;;;;;;5102550;28;20217;-87
2022/02/12 00:08:47;;;;;;;13.82;9.05;;;;;;;;;;5100918;27;20635;-87
2022/02/12 00:11:14;;;;;;;10.45;8.57;;;0.90;99.90;;;;;;5093015;28;20823;-87
2022/02/12 00:13:42;;;;;;;15.07;11.15;;;;;;;;;;5109747;28;20235;-87
2022/02/12 00:16:10;;;;;;;20.60;13.18;;;0.50;99.90;;;;;;5098342;28;20191;-87
2022/02/12 00:18:37;;;;;;;25.83;15.80;;;;;;;;;;5088634;28;20226;-88
2022/02/12 00:21:04;;;;;;;33.40;16.13;;;0.70;99.90;;;;;;5100999;28;20190;-87
2022/02/12 00:23:34;;;;;;;37.72;16.35;;;;;;;;;;5107363;28;20249;-87
2022/02/12 00:26:01;;;;;;;24.08;16.67;;;;;;;;;;5107576;28;20198;-87
2022/02/12 00:28:28;;;;;;;26.77;16.52;;;0.70;99.90;;;;;;5098505;28;20332;-87
2022/02/12 00:30:55;;;;;;;20.23;15.75;;;;;;;;;;5092639;28;20195;-87
2022/02/12 00:33:24;;;;;;;20.02;14.98;;;0.70;99.90;;;;;;5098135;28;20290;-87
2022/02/12 00:35:50;;;;;;;33.75;14.50;;;1.80;99.90;;;;;;5081916;28;20246;-88
2022/02/12 00:38:17;;;;;;;26.40;13.82;;;0.90;99.90;;;;;;5101545;28;20224;-87
2022/02/12 00:40:44;;;;;;;19.30;14.38;;;0.60;99.90;;;;;;5103841;28;20247;-85
2022/02/12 00:43:11;;;;;;;18.48;13.50;;;3.20;99.90;;;;;;5109311;28;20323;-87
2022/02/12 00:45:38;;;;;;;30.90;14.43;;;0.60;99.90;;;;;;5106917;28;20194;-86
2022/02/12 00:48:05;;;;;;;19.70;13.77;;;0.90;99.90;;;;;;5108634;28;20441;-87
2022/02/12 00:50:33;;;;;;;23.48;14.98;;;0.60;99.90;;;;;;5099789;28;20191;-87
2022/02/12 00:53:00;;;;;;;18.48;13.77;;;0.70;99.90;;;;;;5105887;28;20258;-86
2022/02/12 00:55:27;;;;;;;23.45;14.73;;;1.10;99.90;;;;;;5095241;28;20927;-88
2022/02/12 00:57:54;;;;;;;20.85;14.48;;;0.50;99.90;;;;;;5099567;28;20285;-86
2022/02/12 01:00:21;;;;;;;17.90;14.85;;;1.90;99.90;;;;;;5102477;28;20275;-87
2022/02/12 01:02:48;;;;;;;19.48;14.15;;;0.60;99.90;;;;;;5088896;28;20211;-87
2022/02/12 01:05:15;;;;;;;20.40;14.95;;;0.40;99.90;;;;;;5094256;28;20863;-88
2022/02/12 01:07:44;;;;;;;22.75;16.02;;;0.50;99.90;;;;;;5109216;28;20222;-87
2022/02/12 01:10:11;;;;;;;28.27;15.05;;;0.30;99.90;;;;;;5097811;28;20190;-87
2022/02/12 01:12:38;;;;;;;26.33;13.88;;;0.50;99.90;;;;;;5101283;28;20304;-87
2022/02/12 01:15:07;;;;;;;20.35;12.77;;;2.10;99.90;;;;;;5091570;28;20193;-87
2022/02/12 01:17:36;;;;;;;26.42;12.63;;;0.50;99.90;;;;;;5108768;28;20294;-87
2022/02/12 01:20:05;;;;;;;22.15;12.77;;;0.40;99.90;;;;;;5104193;28;20309;-86
2022/02/12 01:22:32;;;;;;;35.25;13.60;;;0.40;99.90;;;;;;5089005;28;20708;-86
2022/02/12 01:25:01;;;;;;;24.77;12.48;;;0.40;99.90;;;;;;5099783;28;20263;-86
2022/02/12 01:27:29;;;;;;;44.08;12.77;;;0.30;99.90;;;;;;5101907;28;20218;-86
2022/02/12 01:29:57;;;;;;;31.00;12.55;;;0.00;99.90;;;;;;5084915;28;20221;-86
2022/02/12 01:32:28;;;;;;;15.27;12.07;;;0.00;99.90;;;;;;5087316;28;20285;-86
2022/02/12 01:34:57;;;;;;;21.58;13.80;;;0.10;99.90;;;;;;5091533;28;20232;-83
2022/02/12 01:37:25;;;;;;;19.02;12.10;;;0.00;99.90;;;;;;5101627;28;20194;-84
2022/02/12 01:39:53;;;;;;;29.48;12.80;;;-0.10;99.90;;;;;;5089450;28;20210;-83
2022/02/12 01:42:21;;;;;;;14.38;11.63;;;0.00;99.90;;;;;;5098002;28;20193;-83
2022/02/12 01:44:48;;;;;;;18.17;13.18;;;-0.10;99.90;;;;;;5098679;28;20255;-84
2022/02/12 01:47:15;;;;;;;17.13;10.25;;;1.70;99.90;;;;;;5100182;28;20195;-84
2022/02/12 01:49:43;;;;;;;19.30;12.20;;;-0.10;99.90;;;;;;5089715;28;20187;-84
2022/02/12 01:52:12;;;;;;;18.65;12.27;;;-0.20;99.90;;;;;;5101021;28;20255;-84
2022/02/12 01:54:40;;;;;;;16.85;12.27;;;-0.20;99.90;;;;;;5091993;28;20198;-87
2022/02/12 01:57:08;;;;;;;15.32;11.85;;;-0.20;99.90;;;;;;5092436;28;20194;-84
2022/02/12 01:59:37;;;;;;;14.68;11.65;;;-0.30;99.90;;;;;;5104439;28;20195;-83
2022/02/12 02:02:04;;;;;;;21.90;12.95;;;-0.30;99.90;;;;;;5087305;28;20194;-85
2022/02/12 02:04:31;;;;;;;16.90;10.88;;;;;;;;;;5088148;28;20294;-85
2022/02/12 02:06:59;;;;;;;14.10;11.23;;;;;;;;;;5105394;28;20190;-85
2022/02/12 02:09:27;;;;;;;16.42;11.38;;;;;;;;;;5104204;28;20244;-84
2022/02/12 02:11:54;;;;;;;16.83;13.65;;;0.50;99.90;;;;;;5091344;28;20695;-85
2022/02/12 02:14:31;;;;;;;15.48;12.32;;;-0.60;99.90;;;;;;5108767;28;20190;-84
2022/02/12 02:17:00;;;;;;;16.10;11.70;;;-0.60;99.90;;;;;;5107071;28;20198;-84
2022/02/12 02:19:30;;;;;;;16.15;13.30;;;;;;;;;;5104726;28;20257;-84
2022/02/12 02:21:59;;;;;;;17.58;11.25;;;-1.00;99.90;;;;;;5091375;28;20295;-84
2022/02/12 02:24:28;;;;;;;13.90;11.63;;;-0.60;99.90;;;;;;5101904;28;20209;-84
2022/02/12 02:27:05;;;;;;;14.65;10.80;;;-0.70;99.90;;;;;;5083642;28;20578;-84
2022/02/12 02:29:32;;;;;;;14.00;11.30;;;-0.70;99.90;;;;;;5096307;28;20214;-84
2022/02/12 02:32:00;;;;;;;16.42;12.55;;;;;;;;;;5101152;28;20191;-84
2022/02/12 02:34:27;;;;;;;14.75;13.02;;;-0.70;99.90;;;;;;5108653;28;20210;-85
2022/02/12 02:36:54;;;;;;;15.32;12.80;;;-1.00;99.90;;;;;;5095105;28;20212;-85
2022/02/12 02:39:21;;;;;;;14.30;11.68;;;-0.60;99.90;;;;;;5107017;28;20186;-85
2022/02/12 02:41:50;;;;;;;19.50;13.07;;;-0.70;99.90;;;;;;5094113;28;20195;-85
2022/02/12 02:44:17;;;;;;;16.23;11.55;;;-0.80;99.90;;;;;;5098674;28;20332;-85
2022/02/12 02:46:44;;;;;;;19.73;11.82;;;;;;;;;;5109952;28;20234;-86
2022/02/12 02:49:11;;;;;;;13.93;10.65;;;;;;;;;;5090828;28;20183;-85
2022/02/12 02:57:09;;;;;;;14.23;12.23;;;-0.80;99.90;;;;;;5109590;28;20687;-85
2022/02/12 02:59:36;;;;;;;14.00;11.07;;;;;;;;;;5100678;27;20240;-86
2022/02/12 03:02:03;;;;;;;17.65;12.30;;;-0.90;99.90;;;;;;5091738;28;20218;-85
2022/02/12 03:04:31;;;;;;;16.98;11.13;;;-0.80;99.90;;;;;;5093888;28;20230;-85
2022/02/12 03:06:58;;;;;;;18.02;12.40;;;-0.80;99.90;;;;;;5109476;28;20197;-85
2022/02/12 03:09:26;;;;;;;16.63;11.82;;;-0.80;99.90;;;;;;5106363;28;20269;-86
2022/02/12 03:11:54;;;;;;;13.68;10.30;;;;;;;;;;5092423;28;20199;-85
2022/02/12 03:14:22;;;;;;;13.70;11.13;;;-0.70;99.90;;;;;;5090568;28;20214;-85
2022/02/12 03:16:49;;;;;;;17.83;11.25;;;;;;;;;;5102681;28;20197;-85
2022/02/12 03:19:16;;;;;;;17.42;11.52;;;-0.80;99.90;;;;;;5102307;28;20198;-85
2022/02/12 03:21:43;;;;;;;17.88;10.75;;;-0.90;99.90;;;;;;5104337;28;20218;-85
2022/02/12 03:24:12;;;;;;;11.82;9.60;;;-0.90;99.90;;;;;;5101206;28;20215;-85
2022/02/12 03:26:39;;;;;;;16.52;11.60;;;;;;;;;;5098793;28;20198;-84
2022/02/12 03:29:07;;;;;;;12.88;9.57;;;;;;;;;;5100257;28;20269;-84
2022/02/12 03:31:35;;;;;;;15.80;11.85;;;-0.90;99.90;;;;;;5090604;28;20589;-85
2022/02/12 03:34:02;;;;;;;16.75;11.73;;;-1.00;99.90;;;;;;5090075;28;20233;-85
2022/02/12 03:36:29;;;;;;;14.25;10.32;;;;;;;;;;5090620;28;20611;-85
2022/02/12 03:38:56;;;;;;;16.95;10.95;;;;;;;;;;5110387;28;20271;-85
2022/02/12 03:41:25;;;;;;;15.27;12.00;;;-0.90;99.90;;;;;;5100559;28;20190;-86
2022/02/12 03:43:52;;;;;;;15.85;11.15;;;-0.90;99.90;;;;;;5093409;28;20223;-86
2022/02/12 03:46:19;;;;;;;17.70;12.02;;;-1.00;99.90;;;;;;5110972;28;20219;-85
2022/02/12 03:48:48;;;;;;;14.38;11.52;;;-0.90;99.90;;;;;;5097494;28;20276;-85
2022/02/12 03:51:17;;;;;;;16.65;12.18;;;;;;;;;;5090624;28;20222;-85
2022/02/12 03:53:44;;;;;;;16.27;11.95;;;-0.90;99.90;;;;;;5091277;28;20199;-85
2022/02/12 03:56:11;;;;;;;14.75;11.93;;;-0.80;99.90;;;;;;5075456;28;20201;-85
2022/02/12 03:58:38;;;;;;;14.43;11.93;;;-0.80;99.90;;;;;;5100674;28;20205;-86
2022/02/12 04:01:05;;;;;;;19.63;12.45;;;-0.70;99.90;;;;;;5097944;28;20277;-85
2022/02/12 04:03:32;;;;;;;15.90;11.55;;;-0.60;99.90;;;;;;5095108;28;20268;-85
2022/02/12 04:06:00;;;;;;;18.67;12.77;;;-0.60;99.90;;;;;;5093609;28;20274;-85
2022/02/12 04:08:27;;;;;;;17.85;13.27;;;;;;;;;;5104030;28;20724;-86
2022/02/12 04:10:55;;;;;;;18.50;13.00;;;;;;;;;;5092008;28;20198;-84
2022/02/12 04:13:21;;;;;;;19.10;11.75;;;-0.60;99.90;;;;;;5104883;28;20289;-85
2022/02/12 04:15:49;;;;;;;18.42;12.45;;;;;;;;;;5091149;28;20222;-85
2022/02/12 04:18:16;;;;;;;15.38;11.32;;;-0.70;99.90;;;;;;5101277;28;20197;-86
2022/02/12 04:20:43;;;;;;;19.95;12.23;;;-0.70;99.90;;;;;;5097958;28;20223;-86
2022/02/12 04:23:12;;;;;;;20.40;13.07;;;-0.70;99.90;;;;;;5089429;28;20281;-85
2022/02/12 04:25:39;;;;;;;21.95;13.05;;;-0.80;99.90;;;;;;5107119;28;20214;-85
2022/02/12 04:28:07;;;;;;;13.68;11.77;;;-0.70;99.90;;;;;;5099623;28;20226;-86
2022/02/12 04:30:36;;;;;;;16.30;11.65;;;-0.80;99.90;;;;;;5097434;28;20257;-85
2022/02/12 04:33:03;;;;;;;18.70;12.63;;;-0.80;99.90;;;;;;5078221;28;20211;-85
2022/02/12 04:35:30;;;;;;;15.52;11.80;;;-0.50;99.90;;;;;;5088844;28;20251;-84
2022/02/12 04:37:57;;;;;;;17.67;11.52;;;;;;;;;;5094090;28;20648;-85
2022/02/12 04:40:26;;;;;;;20.38;13.10;;;-0.90;99.90;;;;;;5092852;28;20198;-85
2022/02/12 04:42:53;;;;;;;12.45;10.10;;;;;;;;;;5098861;28;20195;-85
2022/02/12 04:45:21;;;;;;;15.18;11.07;;;-1.10;99.90;;;;;;5106596;28;20700;-86
2022/02/12 04:47:47;;;;;;;21.65;11.90;;;-1.00;99.90;;;;;;5108507;28;20251;-85
2022/02/12 04:50:14;;;;;;;19.63;12.68;;;-1.20;99.90;;;;;;5097607;28;20217;-85
2022/02/12 04:52:41;;;;;;;21.02;14.13;;;-1.10;99.90;;;;;;5092504;28;20247;-84
2022/02/12 04:55:09;;;;;;;14.80;11.23;;;-1.10;99.90;;;;;;5088315;28;20255;-85
2022/02/12 04:57:37;;;;;;;17.58;10.50;;;-1.10;99.90;;;;;;5108929;28;20679;-84
2022/02/12 05:00:05;;;;;;;21.02;12.73;;;-1.10;99.90;;;;;;5098806;28;20276;-84
2022/02/12 05:02:32;;;;;;;16.33;10.63;;;-1.10;99.90;;;;;;5089363;28;20215;-85
2022/02/12 05:04:59;;;;;;;21.00;12.85;;;-1.10;99.90;;;;;;5087284;28;20253;-84
2022/02/12 05:07:26;;;;;;;15.95;11.90;;;-1.10;99.90;;;;;;5108621;28;20194;-84
2022/02/12 05:09:53;;;;;;;16.02;12.07;;;;;;;;;;5095428;28;20880;-84
2022/02/12 05:12:20;;;;;;;18.15;12.35;;;-1.00;99.90;;;;;;5088184;28;20206;-86
2022/02/12 05:14:48;;;;;;;16.55;12.25;;;-1.00;99.90;;;;;;5107882;28;20543;-85
2022/02/12 05:17:15;;;;;;;18.52;10.90;;;-1.10;99.90;;;;;;5091042;28;20274;-85
2022/02/12 05:19:42;;;;;;;18.30;13.07;;;-1.10;99.90;;;;;;5089733;28;20587;-85
2022/02/12 05:22:09;;;;;;;20.52;12.00;;;-1.10;99.90;;;;;;5088383;28;20195;-85
2022/02/12 05:24:36;;;;;;;15.95;12.73;;;0.00;99.90;;;;;;5099498;28;20218;-84
2022/02/12 05:27:04;;;;;;;16.83;12.10;;;-1.40;99.90;;;;;;5092811;28;20266;-84
2022/02/12 05:29:31;;;;;;;19.13;12.32;;;;;;;;;;5091237;28;20205;-84
2022/02/12 05:31:59;;;;;;;18.25;12.20;;;-1.10;99.90;;;;;;5108230;28;20289;-85
2022/02/12 05:34:26;;;;;;;13.88;11.00;;;-1.20;99.90;;;;;;5105751;28;20230;-85
2022/02/12 05:36:53;;;;;;;16.88;12.13;;;-1.20;99.90;;;;;;5099269;28;20257;-84
2022/02/12 05:39:20;;;;;;;15.32;11.77;;;-2.30;99.90;;;;;;5101496;28;20226;-84
2022/02/12 05:41:47;;;;;;;16.95;11.77;;;-1.80;99.90;;;;;;5090859;28;20305;-84
2022/02/12 05:44:13;;;;;;;17.45;12.30;;;-1.80;99.90;;;;;;5107444;28;20244;-84
2022/02/12 05:46:41;;;;;;;19.95;11.48;;;-1.80;99.90;;;;;;5098543;28;20217;-84
2022/02/12 05:49:09;;;;;;;17.77;12.57;;;-1.80;99.90;;;;;;5106645;28;20194;-84
2022/02/12 05:51:36;;;;;;;18.00;10.80;;;-1.50;99.90;;;;;;5108562;28;20234;-84
2022/02/12 05:54:05;;;;;;;20.42;12.48;;;-1.80;99.90;;;;;;5087506;28;20273;-84
2022/02/12 05:56:33;;;;;;;19.75;13.50;;;-1.90;99.90;;;;;;5089370;28;20210;-84
2022/02/12 05:59:01;;;;;;;19.85;12.07;;;-1.80;99.90;;;;;;5102674;28;20198;-84
2022/02/12 06:01:28;;;;;;;16.38;10.98;;;-1.80;99.90;;;;;;5103659;28;20195;-85
2022/02/12 06:03:55;;;;;;;17.73;11.48;;;;;;;;;;5106081;28;20297;-84
2022/02/12 06:06:23;;;;;;;17.80;11.23;;;-1.80;99.90;;;;;;5099287;28;20300;-85
2022/02/12 06:08:50;;;;;;;16.77;11.23;;;;;;;;;;5102076;28;20225;-84
2022/02/12 06:11:17;;;;;;;20.20;9.90;;;-1.90;99.90;;;;;;5106436;28;20739;-84
2022/02/12 06:13:44;;;;;;;15.80;10.90;;;-2.00;99.90;;;;;;5095039;28;20741;-85
2022/02/12 06:16:11;;;;;;;14.48;10.50;;;-1.90;99.90;;;;;;5092804;28;20204;-84
2022/02/12 06:18:38;;;;;;;17.10;10.25;;;-1.90;99.90;;;;;;5092030;28;20218;-84
2022/02/12 06:21:06;;;;;;;16.58;11.55;;;-1.70;99.90;;;;;;5093180;28;20202;-86
2022/02/12 06:23:36;;;;;;;17.52;11.10;;;-1.80;99.90;;;;;;5094775;28;20194;-84
2022/02/12 06:26:03;;;;;;;17.25;11.82;;;;;;;;;;5106923;27;20259;-84
2022/02/12 06:28:31;;;;;;;16.20;11.35;;;-1.90;99.90;;;;;;5097000;28;20234;-84
2022/02/12 06:30:58;;;;;;;12.35;9.52;;;-1.90;99.90;;;;;;5110686;28;20277;-84
2022/02/12 06:33:24;;;;;;;12.77;11.27;;;-1.70;99.90;;;;;;5111409;27;20306;-85
2022/02/12 06:35:51;;;;;;;13.93;9.73;;;-1.90;99.90;;;;;;5097040;28;20240;-82
2022/02/12 06:38:18;;;;;;;12.65;8.75;;;-1.60;99.90;;;;;;5088233;28;20195;-83
2022/02/12 06:40:47;;;;;;;16.17;9.68;;;-1.90;99.90;;;;;;5089178;28;20282;-82
2022/02/12 06:43:14;;;;;;;14.30;9.63;;;-1.90;99.90;;;;;;5086150;28;20684;-82
2022/02/12 06:45:50;;;;;;;19.63;11.40;;;-1.90;99.90;;;;;;5079658;28;20778;-83
2022/02/12 06:48:18;;;;;;;19.45;9.38;;;;;;;;;;5084986;28;20208;-82
2022/02/12 06:50:45;;;;;;;12.65;9.07;;;;;;;;;;5070488;28;20187;-83
2022/02/12 06:53:13;;;;;;;16.15;10.15;;;;;;;;;;5071375;28;20195;-82
2022/02/12 06:55:40;;;;;;;12.30;8.32;;;-1.90;99.90;;;;;;5079286;28;20268;-82
2022/02/12 06:58:08;;;;;;;10.25;7.07;;;-1.80;99.90;;;;;;5089974;28;20257;-82
2022/02/12 07:00:35;;;;;;;10.82;7.90;;;;;;;;;;5084033;28;20204;-82
2022/02/12 07:03:02;;;;;;;19.73;10.00;;;;;;;;;;5080794;28;20669;-83
2022/02/12 07:05:30;;;;;;;16.83;9.13;;;;;;;;;;5081298;28;20223;-84
2022/02/12 07:07:57;;;;;;;14.52;10.10;;;-1.80;99.90;;;;;;5088378;28;20222;-82
2022/02/12 07:10:24;;;;;;;14.60;9.25;;;;;;;;;;5084232;28;20305;-82
2022/02/12 07:12:51;;;;;;;20.42;13.10;;;;;;;;;;5089917;28;20248;-82
2022/02/12 07:15:19;;;;;;;18.02;10.38;;;-2.20;99.90;;;;;;5083014;28;20230;-83
2022/02/12 07:17:46;;;;;;;14.05;11.80;;;-1.70;99.90;;;;;;5070784;28;20720;-82
2022/02/12 07:20:15;;;;;;;22.17;12.77;;;-2.60;99.90;;;;;;5085698;28;20278;-83
2022/02/12 07:22:41;;;;;;;21.60;14.73;;;-2.20;99.90;;;;;;5089213;28;20195;-82
2022/02/12 07:25:10;;;;;;;21.33;12.93;;;-1.20;99.90;;;;;;5089270;28;20327;-82
2022/02/12 07:27:38;;;;;;;20.90;14.27;;;-1.20;99.90;;;;;;5091104;28;20732;-82
2022/02/12 07:30:07;;;;;;;19.38;11.32;;;-1.80;99.90;;;;;;5091776;28;20281;-82
2022/02/12 07:32:37;;;;;;;18.38;12.95;;;-1.90;99.90;;;;;;5088134;28;20191;-83
2022/02/12 07:35:05;;;;;;;19.33;13.65;;;-1.80;99.90;;;;;;5090328;28;20426;-82
2022/02/12 07:37:32;;;;;;;20.45;10.52;;;-1.80;99.90;;;;;;5090232;28;20613;-82
2022/02/12 07:39:59;;;;;;;14.35;12.07;;;-1.70;99.90;;;;;;5089613;28;20775;-82
2022/02/12 07:42:26;;;;;;;16.63;11.77;;;-0.40;99.90;;;;;;5089686;28;20291;-83
2022/02/12 07:44:53;;;;;;;14.82;12.05;;;-1.50;99.90;;;;;;5088808;28;20706;-84
2022/02/12 07:47:20;;;;;;;16.38;9.90;;;-1.80;99.90;;;;;;5087646;28;20306;-84
2022/02/12 07:49:48;;;;;;;11.88;9.63;;;-1.30;99.90;;;;;;5089705;28;20661;-84
2022/02/12 07:52:15;;;;;;;9.63;7.68;;;-0.90;99.90;;;;;;5087473;28;20213;-84
2022/02/12 07:54:42;;;;;;;8.18;7.38;;;-0.60;99.90;;;;;;5088965;28;20205;-84
2022/02/12 07:57:09;;;;;;;8.35;6.35;;;-0.50;99.90;;;;;;5090062;28;20556;-84
2022/02/12 07:59:36;;;;;;;9.30;5.53;;;;;;;;;;5090929;28;20282;-84
2022/02/12 08:02:04;;;;;;;13.63;5.93;;;-0.20;99.90;;;;;;5089086;28;20218;-84
2022/02/12 08:04:31;;;;;;;15.25;6.50;;;-0.10;99.90;;;;;;5083443;28;20231;-84
2022/02/12 08:09:48;;;;;;;11.57;7.50;;;0.40;99.90;;;;;;5085557;28;20206;-82
2022/02/12 08:12:15;;;;;;;13.07;6.50;;;0.20;99.90;;;;;;5086743;28;20617;-83
2022/02/12 08:14:43;;;;;;;11.65;6.53;;;0.40;99.90;;;;;;5089540;28;20206;-84
2022/02/12 08:17:10;;;;;;;14.52;7.10;;;0.50;99.90;;;;;;5091138;28;20198;-83
2022/02/12 08:19:38;;;;;;;16.77;7.38;;;0.60;99.90;;;;;;5086889;28;20198;-82
2022/02/12 08:22:06;;;;;;;17.10;7.40;;;1.20;99.90;;;;;;5084539;28;20195;-82
2022/02/12 08:24:34;;;;;;;10.32;6.28;;;1.00;99.90;;;;;;5085346;28;20222;-82
2022/02/12 08:27:01;;;;;;;12.50;8.10;;;0.90;99.90;;;;;;5086265;28;21139;-81
2022/02/12 08:29:28;;;;;;;12.38;6.88;;;1.00;99.90;;;;;;5083208;28;20218;-81
2022/02/12 08:31:56;;;;;;;8.38;6.75;;;1.20;99.90;;;;;;5090256;28;20199;-82
2022/02/12 08:34:23;;;;;;;12.45;8.00;;;1.30;99.90;;;;;;5086351;28;20749;-82
2022/02/12 08:36:51;;;;;;;10.23;7.97;;;1.30;99.90;;;;;;5084047;28;20202;-82
2022/02/12 08:39:19;;;;;;;9.55;7.15;;;1.40;99.90;;;;;;5084586;28;20201;-82
2022/02/12 08:41:47;;;;;;;13.02;8.70;;;1.50;99.90;;;;;;5086889;28;20720;-82
2022/02/12 08:44:15;;;;;;;13.90;8.93;;;1.40;99.90;;;;;;5087063;28;20226;-82
2022/02/12 08:46:43;;;;;;;9.00;7.55;;;1.60;99.90;;;;;;5087440;28;20230;-82
2022/02/12 08:49:10;;;;;;;11.32;8.38;;;1.80;99.90;;;;;;5087923;28;20597;-81
2022/02/12 08:51:39;;;;;;;11.20;7.82;;;1.90;99.90;;;;;;5087606;28;20281;-82
2022/02/12 08:54:06;;;;;;;10.18;7.18;;;1.90;99.90;;;;;;5092258;28;20675;-82
2022/02/12 08:56:34;;;;;;;13.25;7.53;;;2.00;99.80;;;;;;5095422;28;20713;-82
2022/02/12 08:59:01;;;;;;;10.48;7.25;;;2.10;99.50;;;;;;5098822;28;21230;-81
2022/02/12 09:01:28;;;;;;;13.15;7.40;;;2.30;99.10;;;;;;5091584;28;20190;-82
2022/02/12 09:03:56;;;;;;;14.82;7.00;;;2.20;98.40;;;;;;5102260;28;20761;-84
2022/02/12 09:06:23;;;;;;;13.45;6.80;;;2.10;98.70;;;;;;5095246;28;20282;-82
2022/02/12 09:08:51;;;;;;;12.90;7.75;;;2.20;99.10;;;;;;5108724;28;20660;-82
2022/02/12 09:11:19;;;;;;;11.95;7.80;;;2.30;99.20;;;;;;5102632;28;20229;-82
2022/02/12 09:13:49;;;;;;;12.25;7.85;;;2.40;98.70;;;;;;5089280;28;20201;-83
2022/02/12 09:16:16;;;;;;;8.90;7.30;;;2.40;98.60;;;;;;5099527;28;20194;-82
2022/02/12 09:18:44;;;;;;;13.60;8.13;;;2.50;98.70;;;;;;5092160;28;20202;-82
2022/02/12 09:21:11;;;;;;;10.10;6.15;;;2.40;99.90;;;;;;5078037;28;20198;-82
2022/02/12 09:23:38;;;;;;;11.57;8.55;;;2.60;98.60;;;;;;5102396;28;20219;-82
2022/02/12 09:26:05;;;;;;;18.42;7.30;;;3.10;98.20;;;;;;5097437;28;20249;-82
2022/02/12 09:28:32;;;;;;;11.48;8.05;;;2.80;97.50;;;;;;5093001;28;20226;-82
2022/02/12 09:31:00;;;;;;;10.52;6.90;;;2.90;97.50;;;;;;5089174;28;20198;-82
2022/02/12 09:33:27;;;;;;;10.20;6.78;;;2.90;97.20;;;;;;5088114;28;20572;-82
2022/02/12 09:35:56;;;;;;;14.35;6.80;;;2.90;97.20;;;;;;5093428;28;20233;-82
2022/02/12 09:38:23;;;;;;;9.35;6.25;;;2.90;96.60;;;;;;5098342;28;20200;-82
2022/02/12 09:40:50;;;;;;;9.57;6.88;;;2.90;96.40;;;;;;5089352;28;20288;-83
2022/02/12 09:43:19;;;;;;;8.68;6.57;;;2.90;96.40;;;;;;5076066;28;20201;-82
2022/02/12 09:45:55;;;;;;;19.77;7.60;;;3.10;96.40;;;;;;5099288;28;20250;-82
2022/02/12 09:48:24;;;;;;;9.52;6.60;;;3.10;96.40;;;;;;5086126;28;20232;-83
2022/02/12 09:50:52;;;;;;;8.45;6.90;;;3.10;95.80;;;;;;5087060;28;20222;-83
2022/02/12 09:53:19;;;;;;;9.60;6.85;;;3.20;95.60;;;;;;5087493;28;20352;-83
2022/02/12 09:55:46;;;;;;;13.20;7.22;;;3.20;95.50;;;;;;5087360;28;20202;-83
2022/02/12 09:58:15;;;;;;;8.25;5.95;;;3.20;95.70;;;;;;5087286;28;20230;-83
2022/02/12 10:00:43;;;;;;;9.23;6.43;;;3.40;95.60;;;;;;5086673;28;20244;-83
2022/02/12 10:03:11;;;;;;;9.90;6.47;;;3.40;95.30;;;;;;5087892;28;20194;-84
2022/02/12 10:05:39;;;;;;;10.68;6.70;;;3.30;95.50;;;;;;5087790;28;20229;-83
2022/02/12 10:08:15;;;;;;;11.68;6.90;;;3.30;95.60;;;;;;5088015;28;20859;-83
2022/02/12 10:10:43;;;;;;;10.75;7.25;;;3.40;95.30;;;;;;5088320;28;20194;-83
2022/02/12 10:13:13;;;;;;;7.90;6.38;;;3.50;94.90;;;;;;5087312;28;20193;-83
2022/02/12 10:15:40;;;;;;;13.02;6.43;;;3.40;95.10;;;;;;5088115;28;20202;-84
2022/02/12 10:18:08;;;;;;;9.63;7.43;;;3.50;95.40;;;;;;5087884;28;20235;-84
2022/02/12 10:20:37;;;;;;;26.50;7.25;;;3.60;98.50;;;;;;5087448;28;20210;-84
2022/02/12 10:23:09;;;;;;;10.73;6.70;;;3.60;95.00;;;;;;5087765;28;20207;-83
2022/02/12 10:25:37;;;;;;;12.23;6.50;;;3.70;97.70;;;;;;5087252;28;20297;-83
2022/02/12 10:28:05;;;;;;;9.73;6.43;;;3.60;94.70;;;;;;5087812;28;20311;-83
2022/02/12 10:30:32;;;;;;;10.52;6.75;;;3.70;94.40;;;;;;5088103;28;20203;-83
2022/02/12 10:33:01;;;;;;;11.02;6.53;;;3.70;94.30;;;;;;5087582;28;20289;-83
2022/02/12 10:35:29;;;;;;;7.07;5.43;;;3.80;93.50;;;;;;5087750;28;20620;-83
2022/02/12 10:37:59;;;;;;;6.38;5.03;;;3.70;96.20;;;;;;5087471;28;20275;-83
2022/02/12 10:40:28;;;;;;;6.25;4.60;;;3.80;96.80;;;;;;5078139;28;20751;-84
2022/02/12 10:42:56;;;;;;;15.10;6.15;;;3.70;93.20;;;;;;5087653;28;20286;-84
2022/02/12 10:45:25;;;;;;;7.30;5.40;;;3.80;93.50;;;;;;5087611;28;20242;-84
2022/02/12 10:47:52;;;;;;;9.15;5.43;;;4.40;97.10;;;;;;5087862;28;20648;-84
2022/02/12 10:50:21;;;;;;;12.23;6.63;;;3.80;93.60;;;;;;5087671;28;20206;-84
2022/02/12 10:52:49;;;;;;;10.02;5.97;;;3.80;93.80;;;;;;5086945;28;20282;-84
2022/02/12 10:55:29;;;;;;;16.35;6.60;;;3.80;93.60;;;;;;5090820;28;20289;-84
2022/02/12 10:57:59;;;;;;;9.52;5.68;;;3.80;93.20;;;;;;5091145;28;20238;-84
2022/02/12 11:00:27;;;;;;;9.23;6.18;;;4.00;93.40;;;;;;5091217;28;20203;-84
2022/02/12 11:02:56;;;;;;;8.98;6.50;;;4.00;93.40;;;;;;5090719;28;20228;-84
2022/02/12 11:05:23;;;;;;;18.42;7.35;;;4.00;93.50;;;;;;5090302;28;20202;-84
2022/02/12 11:07:51;;;;;;;17.88;6.80;;;4.10;93.80;;;;;;5091171;28;20226;-84
2022/02/12 11:10:19;;;;;;;11.50;7.13;;;4.20;93.30;;;;;;5091061;28;20287;-84
2022/02/12 11:12:46;;;;;;;12.07;6.47;;;4.20;93.00;;;;;;5090649;28;20198;-84
2022/02/12 11:15:15;;;;;;;10.73;6.75;;;4.20;92.10;;;;;;5090875;28;20238;-84
2022/02/12 11:17:46;;;;;;;7.95;6.20;;;4.20;92.50;;;;;;5090413;28;20206;-84
2022/02/12 11:20:14;;;;;;;7.60;5.72;;;4.20;92.10;;;;;;5090747;28;20206;-84
2022/02/12 11:22:42;;;;;;;11.27;6.15;;;4.20;92.40;;;;;;5089962;28;20233;-84
2022/02/12 11:25:37;;;;;;;10.18;6.78;;;4.40;91.50;;;;;;5090401;28;21062;-84
2022/02/12 11:28:08;;;;;;;11.98;6.88;;;4.90;96.20;;;;;;5054073;28;20850;-84
2022/02/12 11:30:38;;;;;;;8.82;7.22;;;4.40;91.60;;;;;;5090989;28;20234;-83
2022/02/12 11:33:17;;;;;;;14.48;6.85;;;4.60;91.80;;;;;;5090317;28;20300;-84
2022/02/12 11:35:44;;;;;;;7.45;6.57;;;4.40;91.40;;;;;;5090713;28;20210;-84
2022/02/12 11:38:34;;;;;;;10.60;6.55;;;4.50;91.50;;;;;;5090475;28;20206;-84
2022/02/12 11:41:20;;;;;;;6.95;5.97;;;4.60;91.30;;;;;;5082525;28;20202;-84
2022/02/12 11:43:47;;;;;;;8.75;5.50;;;4.60;91.00;;;;;;5090257;28;20206;-84
2022/02/12 11:46:36;;;;;;;8.65;6.22;;;4.90;90.10;;;;;;5090075;28;20230;-84
2022/02/12 11:49:24;;;;;;;7.22;5.93;;;4.80;90.10;;;;;;5069963;28;20349;-84
2022/02/12 11:51:51;;;;;;;7.82;5.55;;;4.80;90.20;;;;;;5070020;28;20203;-84
2022/02/12 11:54:56;;;;;;;9.45;6.25;;;4.70;89.80;;;;;;5069723;28;20199;-84
2022/02/12 11:57:43;;;;;;;6.90;5.63;;;4.90;91.00;;;;;;5069311;28;20280;-84
2022/02/12 12:00:43;;;;;;;8.32;5.78;;;4.80;90.20;;;;;;5069719;28;20677;-85
2022/02/12 12:03:12;;;;;;;6.70;4.97;;;4.90;89.30;;;;;;5039692;28;20204;-84
2022/02/12 12:05:39;;;;;;;8.25;6.00;;;7.30;90.20;;;;;;5045727;28;20219;-85
2022/02/12 12:08:15;;;;;;;8.48;6.38;;;5.00;86.40;;;;;;5065865;28;20242;-84
2022/02/12 12:11:10;;;;;;;17.80;5.93;;;4.90;87.80;;;;;;5089886;28;20277;-84
2022/02/12 12:13:41;;;;;;;10.38;5.90;;;5.00;86.60;;;;;;5089659;28;20194;-84
2022/02/12 12:19:03;;;;;;;5.10;4.10;;;5.20;86.30;;;;;;5086539;28;20280;-84
2022/02/12 12:21:32;;;;;;;5.55;4.40;;;5.20;84.00;;;;;;5088738;28;20531;-84
2022/02/12 12:24:01;;;;;;;5.18;4.68;;;5.30;83.00;;;;;;5089137;28;20198;-84
2022/02/12 12:26:40;;;;;;;6.85;4.32;;;5.70;90.70;;;;;;5088718;28;20260;-85
2022/02/12 12:32:01;;;;;;;11.15;4.18;;;5.60;87.80;;;;;;5089189;28;20213;-84
2022/02/12 12:34:30;;;;;;;5.90;4.15;;;5.60;79.20;;;;;;5089194;28;20729;-84
2022/02/12 12:36:57;;;;;;;4.75;3.67;;;5.40;79.90;;;;;;5088715;28;20267;-84
2022/02/12 12:39:32;;;;;;;3.28;2.78;;;5.60;77.80;;;;;;5089287;28;20206;-84
2022/02/12 12:42:03;;;;;;;2.70;2.45;;;5.50;75.10;;;;;;5069035;28;20203;-84
2022/02/12 12:44:31;;;;;;;5.80;3.10;;;5.70;83.60;;;;;;5068396;28;20207;-84
2022/02/12 12:46:59;;;;;;;3.10;2.30;;;5.70;73.00;;;;;;5072748;28;20292;-85
2022/02/12 12:49:34;;;;;;;3.03;2.20;;;5.70;73.90;;;;;;5088584;28;20285;-84
2022/02/12 12:52:02;;;;;;;3.35;2.80;;;5.70;72.50;;;;;;5089271;28;20558;-85
2022/02/12 12:54:30;;;;;;;3.40;2.20;;;5.80;72.80;;;;;;5088278;28;20211;-85
2022/02/12 12:56:58;;;;;;;3.90;2.10;;;5.80;70.30;;;;;;5088803;28;20203;-85
2022/02/12 12:59:25;;;;;;;6.22;2.70;;;5.80;71.20;;;;;;5088954;28;20237;-84
2022/02/12 13:01:57;;;;;;;2.20;2.05;;;5.80;71.30;;;;;;5088120;28;20209;-85
2022/02/12 13:04:24;;;;;;;2.83;1.90;;;5.90;68.80;;;;;;5088946;28;20590;-85
2022/02/12 13:06:54;;;;;;;1.60;1.50;;;5.80;67.50;;;;;;5088773;28;20227;-85
2022/02/12 13:09:22;;;;;;;2.58;2.20;;;6.10;66.40;;;;;;5088826;28;20402;-85
2022/02/12 13:11:49;;;;;;;3.00;2.70;;;6.10;67.20;;;;;;5088710;28;20277;-85
2022/02/12 13:14:16;;;;;;;2.58;2.08;;;6.10;66.10;;;;;;5088171;28;20719;-85